sensor_id;sensor_type;location;lat;lon;timestamp;P1;durP1;ratioP1;P2;durP2;ratioP2
37609;SDS011;23457;51.966;8.230;2024-03-07T00:00:15;37.28;;;21.83;;
37609;SDS011;23457;51.966;8.230;2024-03-07T00:02:44;35.53;;;21.17;;
37609;SDS011;23457;51.966;8.230;2024-03-07T00:05:15;37.80;;;22.58;;
37609;SDS011;23457;51.966;8.230;2024-03-07T00:07:42;39.95;;;21.80;;
37609;SDS011;23457;51.966;8.230;2024-03-07T00:10:09;35.72;;;20.75;;
37609;SDS011;23457;51.966;8.230;2024-03-07T00:12:37;38.10;;;22.42;;
37609;SDS011;23457;51.966;8.230;2024-03-07T00:15:05;35.90;;;21.85;;
37609;SDS011;23457;51.966;8.230;2024-03-07T00:17:33;37.92;;;21.75;;
37609;SDS011;23457;51.966;8.230;2024-03-07T00:20:01;40.53;;;21.30;;
37609;SDS011;23457;51.966;8.230;2024-03-07T00:22:30;37.88;;;21.60;;
37609;SDS011;23457;51.966;8.230;2024-03-07T00:24:57;39.33;;;21.35;;
37609;SDS011;23457;51.966;8.230;2024-03-07T00:27:26;33.03;;;20.95;;
37609;SDS011;23457;51.966;8.230;2024-03-07T00:29:53;35.40;;;21.58;;
37609;SDS011;23457;51.966;8.230;2024-03-07T00:32:20;37.33;;;21.75;;
37609;SDS011;23457;51.966;8.230;2024-03-07T00:34:47;37.10;;;21.77;;
37609;SDS011;23457;51.966;8.230;2024-03-07T00:37:15;33.80;;;21.30;;
37609;SDS011;23457;51.966;8.230;2024-03-07T00:39:42;37.17;;;21.75;;
37609;SDS011;23457;51.966;8.230;2024-03-07T00:42:09;39.63;;;22.10;;
37609;SDS011;23457;51.966;8.230;2024-03-07T00:44:36;36.13;;;21.35;;
37609;SDS011;23457;51.966;8.230;2024-03-07T00:47:03;37.45;;;21.75;;
37609;SDS011;23457;51.966;8.230;2024-03-07T00:49:30;33.85;;;20.65;;
37609;SDS011;23457;51.966;8.230;2024-03-07T00:51:58;37.08;;;20.92;;
37609;SDS011;23457;51.966;8.230;2024-03-07T00:54:26;36.30;;;21.65;;
37609;SDS011;23457;51.966;8.230;2024-03-07T00:56:52;37.25;;;21.73;;
37609;SDS011;23457;51.966;8.230;2024-03-07T00:59:20;34.97;;;21.33;;
37609;SDS011;23457;51.966;8.230;2024-03-07T01:01:47;38.72;;;22.10;;
37609;SDS011;23457;51.966;8.230;2024-03-07T01:04:15;39.22;;;21.27;;
37609;SDS011;23457;51.966;8.230;2024-03-07T01:06:42;40.28;;;22.30;;
37609;SDS011;23457;51.966;8.230;2024-03-07T01:09:09;36.53;;;20.75;;
37609;SDS011;23457;51.966;8.230;2024-03-07T01:11:42;35.28;;;20.30;;
37609;SDS011;23457;51.966;8.230;2024-03-07T01:14:10;38.50;;;21.35;;
37609;SDS011;23457;51.966;8.230;2024-03-07T01:16:38;33.47;;;20.63;;
37609;SDS011;23457;51.966;8.230;2024-03-07T01:19:04;36.03;;;19.85;;
37609;SDS011;23457;51.966;8.230;2024-03-07T01:21:35;32.63;;;20.70;;
37609;SDS011;23457;51.966;8.230;2024-03-07T01:24:04;35.67;;;21.10;;
37609;SDS011;23457;51.966;8.230;2024-03-07T01:26:32;39.20;;;19.35;;
37609;SDS011;23457;51.966;8.230;2024-03-07T01:29:01;35.83;;;20.67;;
37609;SDS011;23457;51.966;8.230;2024-03-07T01:31:28;32.65;;;19.67;;
37609;SDS011;23457;51.966;8.230;2024-03-07T01:33:55;37.40;;;20.20;;
37609;SDS011;23457;51.966;8.230;2024-03-07T01:36:22;35.92;;;20.80;;
37609;SDS011;23457;51.966;8.230;2024-03-07T01:38:49;34.80;;;18.95;;
37609;SDS011;23457;51.966;8.230;2024-03-07T01:41:15;36.75;;;20.30;;
37609;SDS011;23457;51.966;8.230;2024-03-07T01:43:42;35.65;;;20.02;;
37609;SDS011;23457;51.966;8.230;2024-03-07T01:46:10;32.67;;;19.83;;
37609;SDS011;23457;51.966;8.230;2024-03-07T01:48:37;30.80;;;18.65;;
37609;SDS011;23457;51.966;8.230;2024-03-07T01:51:05;32.65;;;19.02;;
37609;SDS011;23457;51.966;8.230;2024-03-07T01:53:32;32.00;;;19.38;;
37609;SDS011;23457;51.966;8.230;2024-03-07T01:56:00;32.03;;;19.58;;
37609;SDS011;23457;51.966;8.230;2024-03-07T01:58:29;31.58;;;19.25;;
37609;SDS011;23457;51.966;8.230;2024-03-07T02:01:00;34.20;;;18.80;;
37609;SDS011;23457;51.966;8.230;2024-03-07T02:03:27;32.03;;;19.30;;
37609;SDS011;23457;51.966;8.230;2024-03-07T02:05:54;33.20;;;19.83;;
37609;SDS011;23457;51.966;8.230;2024-03-07T02:08:21;33.95;;;20.30;;
37609;SDS011;23457;51.966;8.230;2024-03-07T02:10:48;27.65;;;18.30;;
37609;SDS011;23457;51.966;8.230;2024-03-07T02:13:15;32.00;;;19.05;;
37609;SDS011;23457;51.966;8.230;2024-03-07T02:15:42;33.83;;;19.95;;
37609;SDS011;23457;51.966;8.230;2024-03-07T02:18:12;31.27;;;20.30;;
37609;SDS011;23457;51.966;8.230;2024-03-07T02:20:42;31.10;;;19.25;;
37609;SDS011;23457;51.966;8.230;2024-03-07T02:23:10;32.00;;;19.73;;
37609;SDS011;23457;51.966;8.230;2024-03-07T02:25:37;29.52;;;19.17;;
37609;SDS011;23457;51.966;8.230;2024-03-07T02:28:04;34.42;;;20.50;;
37609;SDS011;23457;51.966;8.230;2024-03-07T02:30:31;31.45;;;19.75;;
37609;SDS011;23457;51.966;8.230;2024-03-07T02:32:59;33.35;;;20.00;;
37609;SDS011;23457;51.966;8.230;2024-03-07T02:35:33;36.50;;;21.15;;
37609;SDS011;23457;51.966;8.230;2024-03-07T02:38:02;36.17;;;19.47;;
37609;SDS011;23457;51.966;8.230;2024-03-07T02:40:29;36.05;;;21.30;;
37609;SDS011;23457;51.966;8.230;2024-03-07T02:42:57;38.20;;;20.83;;
37609;SDS011;23457;51.966;8.230;2024-03-07T02:45:24;36.25;;;21.60;;
37609;SDS011;23457;51.966;8.230;2024-03-07T02:47:51;35.65;;;20.92;;
37609;SDS011;23457;51.966;8.230;2024-03-07T02:50:20;37.17;;;21.75;;
37609;SDS011;23457;51.966;8.230;2024-03-07T02:52:49;36.88;;;19.90;;
37609;SDS011;23457;51.966;8.230;2024-03-07T02:55:16;37.15;;;20.77;;
37609;SDS011;23457;51.966;8.230;2024-03-07T02:57:43;38.28;;;21.40;;
37609;SDS011;23457;51.966;8.230;2024-03-07T03:00:10;33.97;;;21.35;;
37609;SDS011;23457;51.966;8.230;2024-03-07T03:02:47;36.50;;;21.13;;
37609;SDS011;23457;51.966;8.230;2024-03-07T03:05:15;32.85;;;19.75;;
37609;SDS011;23457;51.966;8.230;2024-03-07T03:07:42;35.83;;;22.27;;
37609;SDS011;23457;51.966;8.230;2024-03-07T03:10:23;35.75;;;20.42;;
37609;SDS011;23457;51.966;8.230;2024-03-07T03:12:56;36.83;;;21.00;;
37609;SDS011;23457;51.966;8.230;2024-03-07T03:15:28;37.17;;;20.55;;
37609;SDS011;23457;51.966;8.230;2024-03-07T03:17:56;41.05;;;23.38;;
37609;SDS011;23457;51.966;8.230;2024-03-07T03:20:26;42.83;;;23.13;;
37609;SDS011;23457;51.966;8.230;2024-03-07T03:23:00;38.55;;;22.38;;
37609;SDS011;23457;51.966;8.230;2024-03-07T03:25:45;38.08;;;22.55;;
37609;SDS011;23457;51.966;8.230;2024-03-07T03:28:11;42.30;;;23.73;;
37609;SDS011;23457;51.966;8.230;2024-03-07T03:30:39;41.50;;;23.55;;
37609;SDS011;23457;51.966;8.230;2024-03-07T03:33:07;43.13;;;24.92;;
37609;SDS011;23457;51.966;8.230;2024-03-07T03:35:34;40.70;;;23.67;;
37609;SDS011;23457;51.966;8.230;2024-03-07T03:38:02;41.15;;;24.38;;
37609;SDS011;23457;51.966;8.230;2024-03-07T03:40:28;45.47;;;25.52;;
37609;SDS011;23457;51.966;8.230;2024-03-07T03:42:55;41.80;;;24.50;;
37609;SDS011;23457;51.966;8.230;2024-03-07T03:45:22;46.35;;;24.90;;
37609;SDS011;23457;51.966;8.230;2024-03-07T03:47:52;39.17;;;24.05;;
37609;SDS011;23457;51.966;8.230;2024-03-07T03:50:19;40.75;;;24.52;;
37609;SDS011;23457;51.966;8.230;2024-03-07T03:52:49;44.85;;;24.65;;
37609;SDS011;23457;51.966;8.230;2024-03-07T03:55:17;43.45;;;25.00;;
37609;SDS011;23457;51.966;8.230;2024-03-07T03:57:44;40.40;;;23.92;;
37609;SDS011;23457;51.966;8.230;2024-03-07T04:02:41;42.45;;;25.27;;
37609;SDS011;23457;51.966;8.230;2024-03-07T04:05:18;43.80;;;24.75;;
37609;SDS011;23457;51.966;8.230;2024-03-07T04:07:46;44.33;;;25.88;;
37609;SDS011;23457;51.966;8.230;2024-03-07T04:10:12;38.85;;;24.27;;
37609;SDS011;23457;51.966;8.230;2024-03-07T04:12:41;32.97;;;19.88;;
37609;SDS011;23457;51.966;8.230;2024-03-07T04:15:08;41.03;;;23.58;;
37609;SDS011;23457;51.966;8.230;2024-03-07T04:17:45;46.85;;;26.08;;
37609;SDS011;23457;51.966;8.230;2024-03-07T04:20:13;41.45;;;24.35;;
37609;SDS011;23457;51.966;8.230;2024-03-07T04:22:40;43.03;;;25.15;;
37609;SDS011;23457;51.966;8.230;2024-03-07T04:25:07;40.05;;;25.35;;
37609;SDS011;23457;51.966;8.230;2024-03-07T04:27:36;41.05;;;25.42;;
37609;SDS011;23457;51.966;8.230;2024-03-07T04:32:33;41.85;;;24.75;;
37609;SDS011;23457;51.966;8.230;2024-03-07T04:35:01;43.10;;;24.88;;
37609;SDS011;23457;51.966;8.230;2024-03-07T04:37:30;40.97;;;25.25;;
37609;SDS011;23457;51.966;8.230;2024-03-07T04:39:57;41.97;;;23.48;;
37609;SDS011;23457;51.966;8.230;2024-03-07T04:42:23;43.83;;;26.50;;
37609;SDS011;23457;51.966;8.230;2024-03-07T04:44:50;40.42;;;24.08;;
37609;SDS011;23457;51.966;8.230;2024-03-07T04:47:18;48.45;;;25.63;;
37609;SDS011;23457;51.966;8.230;2024-03-07T04:49:45;44.38;;;26.23;;
37609;SDS011;23457;51.966;8.230;2024-03-07T04:52:11;45.80;;;26.00;;
37609;SDS011;23457;51.966;8.230;2024-03-07T04:54:38;42.92;;;25.42;;
37609;SDS011;23457;51.966;8.230;2024-03-07T04:57:05;39.72;;;24.70;;
37609;SDS011;23457;51.966;8.230;2024-03-07T04:59:32;41.35;;;24.20;;
37609;SDS011;23457;51.966;8.230;2024-03-07T05:01:58;41.10;;;24.13;;
37609;SDS011;23457;51.966;8.230;2024-03-07T05:04:25;42.85;;;25.00;;
37609;SDS011;23457;51.966;8.230;2024-03-07T05:06:55;44.58;;;25.40;;
37609;SDS011;23457;51.966;8.230;2024-03-07T05:09:24;42.38;;;24.73;;
37609;SDS011;23457;51.966;8.230;2024-03-07T05:11:52;39.67;;;24.33;;
37609;SDS011;23457;51.966;8.230;2024-03-07T05:14:20;46.75;;;24.85;;
37609;SDS011;23457;51.966;8.230;2024-03-07T05:16:52;46.50;;;25.80;;
37609;SDS011;23457;51.966;8.230;2024-03-07T05:19:45;44.80;;;25.00;;
37609;SDS011;23457;51.966;8.230;2024-03-07T05:22:12;44.20;;;25.98;;
37609;SDS011;23457;51.966;8.230;2024-03-07T05:24:42;43.97;;;26.10;;
37609;SDS011;23457;51.966;8.230;2024-03-07T05:27:09;48.13;;;28.60;;
37609;SDS011;23457;51.966;8.230;2024-03-07T05:29:39;43.50;;;25.33;;
37609;SDS011;23457;51.966;8.230;2024-03-07T05:34:49;47.90;;;26.80;;
37609;SDS011;23457;51.966;8.230;2024-03-07T05:37:16;47.58;;;26.50;;
37609;SDS011;23457;51.966;8.230;2024-03-07T05:39:43;47.33;;;27.25;;
37609;SDS011;23457;51.966;8.230;2024-03-07T05:42:10;49.88;;;28.48;;
37609;SDS011;23457;51.966;8.230;2024-03-07T05:44:41;51.70;;;29.15;;
37609;SDS011;23457;51.966;8.230;2024-03-07T05:47:11;52.58;;;27.77;;
37609;SDS011;23457;51.966;8.230;2024-03-07T05:49:40;53.90;;;28.60;;
37609;SDS011;23457;51.966;8.230;2024-03-07T05:52:07;48.97;;;27.45;;
37609;SDS011;23457;51.966;8.230;2024-03-07T05:54:34;47.03;;;27.90;;
37609;SDS011;23457;51.966;8.230;2024-03-07T05:57:01;49.80;;;26.63;;
37609;SDS011;23457;51.966;8.230;2024-03-07T05:59:29;46.85;;;26.58;;
37609;SDS011;23457;51.966;8.230;2024-03-07T06:01:57;49.63;;;29.08;;
37609;SDS011;23457;51.966;8.230;2024-03-07T06:04:24;53.42;;;28.98;;
37609;SDS011;23457;51.966;8.230;2024-03-07T06:06:50;49.15;;;27.33;;
37609;SDS011;23457;51.966;8.230;2024-03-07T06:09:17;50.42;;;27.67;;
37609;SDS011;23457;51.966;8.230;2024-03-07T06:11:48;48.97;;;27.02;;
37609;SDS011;23457;51.966;8.230;2024-03-07T06:14:15;50.88;;;27.27;;
37609;SDS011;23457;51.966;8.230;2024-03-07T06:16:43;48.90;;;26.58;;
37609;SDS011;23457;51.966;8.230;2024-03-07T06:19:10;44.90;;;27.02;;
37609;SDS011;23457;51.966;8.230;2024-03-07T06:21:38;49.97;;;26.98;;
37609;SDS011;23457;51.966;8.230;2024-03-07T06:24:09;48.40;;;27.77;;
37609;SDS011;23457;51.966;8.230;2024-03-07T06:26:38;47.38;;;26.35;;
37609;SDS011;23457;51.966;8.230;2024-03-07T06:29:26;44.92;;;25.17;;
37609;SDS011;23457;51.966;8.230;2024-03-07T06:31:54;40.20;;;21.47;;
37609;SDS011;23457;51.966;8.230;2024-03-07T06:34:21;48.13;;;26.17;;
37609;SDS011;23457;51.966;8.230;2024-03-07T06:36:48;48.20;;;25.23;;
37609;SDS011;23457;51.966;8.230;2024-03-07T06:39:15;43.55;;;25.85;;
37609;SDS011;23457;51.966;8.230;2024-03-07T06:41:41;47.53;;;26.67;;
37609;SDS011;23457;51.966;8.230;2024-03-07T06:44:09;44.88;;;25.65;;
37609;SDS011;23457;51.966;8.230;2024-03-07T06:46:36;44.72;;;25.85;;
37609;SDS011;23457;51.966;8.230;2024-03-07T06:49:03;48.60;;;27.90;;
37609;SDS011;23457;51.966;8.230;2024-03-07T06:51:32;45.22;;;26.52;;
37609;SDS011;23457;51.966;8.230;2024-03-07T06:53:59;46.22;;;26.33;;
37609;SDS011;23457;51.966;8.230;2024-03-07T06:56:26;38.80;;;24.23;;
37609;SDS011;23457;51.966;8.230;2024-03-07T06:58:53;46.33;;;25.90;;
37609;SDS011;23457;51.966;8.230;2024-03-07T07:01:20;45.85;;;25.85;;
37609;SDS011;23457;51.966;8.230;2024-03-07T07:03:47;46.28;;;25.95;;
37609;SDS011;23457;51.966;8.230;2024-03-07T07:06:15;45.05;;;25.17;;
37609;SDS011;23457;51.966;8.230;2024-03-07T07:08:42;44.40;;;24.30;;
37609;SDS011;23457;51.966;8.230;2024-03-07T07:11:10;43.45;;;24.42;;
37609;SDS011;23457;51.966;8.230;2024-03-07T07:13:38;42.67;;;24.85;;
37609;SDS011;23457;51.966;8.230;2024-03-07T07:16:05;47.85;;;25.45;;
37609;SDS011;23457;51.966;8.230;2024-03-07T07:18:32;40.47;;;25.00;;
37609;SDS011;23457;51.966;8.230;2024-03-07T07:20:59;40.85;;;23.27;;
37609;SDS011;23457;51.966;8.230;2024-03-07T07:25:55;42.17;;;24.00;;
37609;SDS011;23457;51.966;8.230;2024-03-07T07:28:22;40.42;;;22.60;;
37609;SDS011;23457;51.966;8.230;2024-03-07T07:30:48;43.53;;;23.42;;
37609;SDS011;23457;51.966;8.230;2024-03-07T07:33:15;43.40;;;24.73;;
37609;SDS011;23457;51.966;8.230;2024-03-07T07:35:42;42.15;;;23.25;;
37609;SDS011;23457;51.966;8.230;2024-03-07T07:38:09;42.38;;;24.15;;
37609;SDS011;23457;51.966;8.230;2024-03-07T07:40:37;46.22;;;24.45;;
37609;SDS011;23457;51.966;8.230;2024-03-07T07:43:05;42.25;;;22.83;;
37609;SDS011;23457;51.966;8.230;2024-03-07T07:45:32;45.25;;;23.85;;
37609;SDS011;23457;51.966;8.230;2024-03-07T07:48:03;40.05;;;22.20;;
37609;SDS011;23457;51.966;8.230;2024-03-07T07:50:30;43.42;;;23.30;;
37609;SDS011;23457;51.966;8.230;2024-03-07T07:52:59;41.35;;;23.27;;
37609;SDS011;23457;51.966;8.230;2024-03-07T07:55:26;43.55;;;23.48;;
37609;SDS011;23457;51.966;8.230;2024-03-07T07:57:54;38.92;;;22.45;;
37609;SDS011;23457;51.966;8.230;2024-03-07T08:00:24;39.77;;;23.10;;
37609;SDS011;23457;51.966;8.230;2024-03-07T08:03:01;43.05;;;23.25;;
37609;SDS011;23457;51.966;8.230;2024-03-07T08:05:31;42.55;;;22.67;;
37609;SDS011;23457;51.966;8.230;2024-03-07T08:08:00;42.15;;;23.88;;
37609;SDS011;23457;51.966;8.230;2024-03-07T08:10:33;39.75;;;22.70;;
37609;SDS011;23457;51.966;8.230;2024-03-07T08:13:02;41.22;;;23.77;;
37609;SDS011;23457;51.966;8.230;2024-03-07T08:15:30;44.03;;;24.27;;
37609;SDS011;23457;51.966;8.230;2024-03-07T08:17:57;38.53;;;23.08;;
37609;SDS011;23457;51.966;8.230;2024-03-07T08:20:26;43.30;;;23.83;;
37609;SDS011;23457;51.966;8.230;2024-03-07T08:22:54;43.50;;;25.02;;
37609;SDS011;23457;51.966;8.230;2024-03-07T08:25:23;43.63;;;24.42;;
37609;SDS011;23457;51.966;8.230;2024-03-07T08:27:52;40.97;;;24.40;;
37609;SDS011;23457;51.966;8.230;2024-03-07T08:30:20;43.80;;;24.35;;
37609;SDS011;23457;51.966;8.230;2024-03-07T08:32:56;43.20;;;23.90;;
37609;SDS011;23457;51.966;8.230;2024-03-07T08:35:25;38.08;;;22.55;;
37609;SDS011;23457;51.966;8.230;2024-03-07T08:37:53;40.00;;;24.17;;
37609;SDS011;23457;51.966;8.230;2024-03-07T08:40:22;43.25;;;24.30;;
37609;SDS011;23457;51.966;8.230;2024-03-07T08:42:55;41.95;;;24.02;;
37609;SDS011;23457;51.966;8.230;2024-03-07T08:45:23;42.27;;;24.03;;
37609;SDS011;23457;51.966;8.230;2024-03-07T08:47:55;44.50;;;25.25;;
37609;SDS011;23457;51.966;8.230;2024-03-07T08:50:25;44.75;;;24.65;;
37609;SDS011;23457;51.966;8.230;2024-03-07T08:52:53;45.58;;;24.23;;
37609;SDS011;23457;51.966;8.230;2024-03-07T08:55:22;44.22;;;25.52;;
37609;SDS011;23457;51.966;8.230;2024-03-07T08:57:51;45.03;;;25.83;;
37609;SDS011;23457;51.966;8.230;2024-03-07T09:00:18;45.00;;;25.55;;
37609;SDS011;23457;51.966;8.230;2024-03-07T09:02:54;45.67;;;27.15;;
37609;SDS011;23457;51.966;8.230;2024-03-07T09:05:27;42.88;;;24.08;;
37609;SDS011;23457;51.966;8.230;2024-03-07T09:07:54;44.60;;;25.15;;
37609;SDS011;23457;51.966;8.230;2024-03-07T09:10:21;38.72;;;23.67;;
37609;SDS011;23457;51.966;8.230;2024-03-07T09:12:50;44.13;;;25.37;;
37609;SDS011;23457;51.966;8.230;2024-03-07T09:15:19;46.92;;;24.73;;
37609;SDS011;23457;51.966;8.230;2024-03-07T09:17:49;46.53;;;25.67;;
37609;SDS011;23457;51.966;8.230;2024-03-07T09:20:15;44.65;;;25.52;;
37609;SDS011;23457;51.966;8.230;2024-03-07T09:22:43;43.55;;;24.52;;
37609;SDS011;23457;51.966;8.230;2024-03-07T09:25:22;45.28;;;25.25;;
37609;SDS011;23457;51.966;8.230;2024-03-07T09:27:50;42.22;;;24.02;;
37609;SDS011;23457;51.966;8.230;2024-03-07T09:30:17;46.17;;;25.05;;
37609;SDS011;23457;51.966;8.230;2024-03-07T09:32:48;42.90;;;24.98;;
37609;SDS011;23457;51.966;8.230;2024-03-07T09:35:15;46.10;;;24.83;;
37609;SDS011;23457;51.966;8.230;2024-03-07T09:37:43;46.40;;;25.48;;
37609;SDS011;23457;51.966;8.230;2024-03-07T09:40:10;48.28;;;25.27;;
37609;SDS011;23457;51.966;8.230;2024-03-07T09:42:42;46.30;;;25.08;;
37609;SDS011;23457;51.966;8.230;2024-03-07T09:45:15;37.28;;;22.33;;
37609;SDS011;23457;51.966;8.230;2024-03-07T09:47:47;38.13;;;22.25;;
37609;SDS011;23457;51.966;8.230;2024-03-07T09:50:17;41.47;;;22.27;;
37609;SDS011;23457;51.966;8.230;2024-03-07T09:52:52;39.75;;;21.85;;
37609;SDS011;23457;51.966;8.230;2024-03-07T09:57:52;40.35;;;21.30;;
37609;SDS011;23457;51.966;8.230;2024-03-07T10:00:23;38.80;;;22.38;;
37609;SDS011;23457;51.966;8.230;2024-03-07T10:02:59;46.25;;;22.42;;
37609;SDS011;23457;51.966;8.230;2024-03-07T10:05:27;41.38;;;21.35;;
37609;SDS011;23457;51.966;8.230;2024-03-07T10:07:55;39.03;;;22.10;;
37609;SDS011;23457;51.966;8.230;2024-03-07T10:10:22;37.15;;;20.60;;
37609;SDS011;23457;51.966;8.230;2024-03-07T10:12:50;41.70;;;22.35;;
37609;SDS011;23457;51.966;8.230;2024-03-07T10:15:19;37.17;;;21.25;;
37609;SDS011;23457;51.966;8.230;2024-03-07T10:17:46;41.55;;;22.63;;
37609;SDS011;23457;51.966;8.230;2024-03-07T10:20:14;39.30;;;21.02;;
37609;SDS011;23457;51.966;8.230;2024-03-07T10:22:47;38.60;;;21.98;;
37609;SDS011;23457;51.966;8.230;2024-03-07T10:25:18;40.28;;;20.33;;
37609;SDS011;23457;51.966;8.230;2024-03-07T10:27:51;38.63;;;21.40;;
37609;SDS011;23457;51.966;8.230;2024-03-07T10:30:19;40.67;;;21.42;;
37609;SDS011;23457;51.966;8.230;2024-03-07T10:32:56;40.95;;;20.08;;
37609;SDS011;23457;51.966;8.230;2024-03-07T10:35:27;37.58;;;20.58;;
37609;SDS011;23457;51.966;8.230;2024-03-07T10:37:56;37.03;;;20.52;;
37609;SDS011;23457;51.966;8.230;2024-03-07T10:40:28;37.45;;;20.08;;
37609;SDS011;23457;51.966;8.230;2024-03-07T10:42:56;42.17;;;21.23;;
37609;SDS011;23457;51.966;8.230;2024-03-07T10:45:24;43.13;;;20.08;;
37609;SDS011;23457;51.966;8.230;2024-03-07T10:47:56;40.88;;;21.23;;
37609;SDS011;23457;51.966;8.230;2024-03-07T11:01:12;41.22;;;21.58;;
37609;SDS011;23457;51.966;8.230;2024-03-07T11:03:40;47.97;;;22.90;;
37609;SDS011;23457;51.966;8.230;2024-03-07T11:06:09;50.80;;;23.33;;
37609;SDS011;23457;51.966;8.230;2024-03-07T11:08:38;46.08;;;23.38;;
37609;SDS011;23457;51.966;8.230;2024-03-07T11:11:06;47.55;;;23.95;;
37609;SDS011;23457;51.966;8.230;2024-03-07T11:13:33;48.55;;;24.30;;
37609;SDS011;23457;51.966;8.230;2024-03-07T11:16:01;49.53;;;24.30;;
37609;SDS011;23457;51.966;8.230;2024-03-07T11:18:29;47.80;;;24.35;;
37609;SDS011;23457;51.966;8.230;2024-03-07T11:20:56;48.25;;;23.40;;
37609;SDS011;23457;51.966;8.230;2024-03-07T11:23:28;51.65;;;23.85;;
37609;SDS011;23457;51.966;8.230;2024-03-07T11:28:35;46.40;;;23.08;;
37609;SDS011;23457;51.966;8.230;2024-03-07T11:36:46;53.83;;;23.35;;
37609;SDS011;23457;51.966;8.230;2024-03-07T11:44:49;47.63;;;21.47;;
37609;SDS011;23457;51.966;8.230;2024-03-07T11:47:17;41.83;;;20.73;;
37609;SDS011;23457;51.966;8.230;2024-03-07T11:49:45;39.05;;;21.10;;
37609;SDS011;23457;51.966;8.230;2024-03-07T11:52:15;42.17;;;21.00;;
37609;SDS011;23457;51.966;8.230;2024-03-07T11:54:43;40.70;;;21.02;;
37609;SDS011;23457;51.966;8.230;2024-03-07T11:59:42;43.08;;;20.10;;
37609;SDS011;23457;51.966;8.230;2024-03-07T12:02:12;48.17;;;22.92;;
37609;SDS011;23457;51.966;8.230;2024-03-07T12:04:44;49.05;;;22.20;;
37609;SDS011;23457;51.966;8.230;2024-03-07T12:07:11;46.10;;;23.10;;
37609;SDS011;23457;51.966;8.230;2024-03-07T12:09:38;47.83;;;23.60;;
37609;SDS011;23457;51.966;8.230;2024-03-07T12:12:05;47.55;;;21.70;;
37609;SDS011;23457;51.966;8.230;2024-03-07T12:14:33;43.28;;;21.73;;
37609;SDS011;23457;51.966;8.230;2024-03-07T12:17:01;45.22;;;19.63;;
37609;SDS011;23457;51.966;8.230;2024-03-07T12:19:31;39.78;;;19.00;;
37609;SDS011;23457;51.966;8.230;2024-03-07T12:22:02;42.60;;;20.42;;
37609;SDS011;23457;51.966;8.230;2024-03-07T12:24:29;39.47;;;18.90;;
37609;SDS011;23457;51.966;8.230;2024-03-07T12:27:08;45.30;;;19.75;;
37609;SDS011;23457;51.966;8.230;2024-03-07T12:29:41;40.97;;;18.48;;
37609;SDS011;23457;51.966;8.230;2024-03-07T12:32:09;36.85;;;17.38;;
37609;SDS011;23457;51.966;8.230;2024-03-07T12:34:40;40.15;;;19.52;;
37609;SDS011;23457;51.966;8.230;2024-03-07T12:37:11;40.90;;;19.08;;
37609;SDS011;23457;51.966;8.230;2024-03-07T12:39:43;44.50;;;19.48;;
37609;SDS011;23457;51.966;8.230;2024-03-07T12:42:15;43.17;;;19.75;;
37609;SDS011;23457;51.966;8.230;2024-03-07T12:44:44;40.30;;;19.17;;
37609;SDS011;23457;51.966;8.230;2024-03-07T12:47:12;43.97;;;21.83;;
37609;SDS011;23457;51.966;8.230;2024-03-07T12:49:43;43.25;;;20.42;;
37609;SDS011;23457;51.966;8.230;2024-03-07T12:52:11;46.53;;;20.30;;
37609;SDS011;23457;51.966;8.230;2024-03-07T12:54:41;42.08;;;21.30;;
37609;SDS011;23457;51.966;8.230;2024-03-07T12:57:09;47.92;;;21.98;;
37609;SDS011;23457;51.966;8.230;2024-03-07T12:59:37;47.97;;;21.77;;
37609;SDS011;23457;51.966;8.230;2024-03-07T13:02:08;44.05;;;21.35;;
37609;SDS011;23457;51.966;8.230;2024-03-07T13:04:35;46.20;;;21.33;;
37609;SDS011;23457;51.966;8.230;2024-03-07T13:07:09;44.38;;;21.63;;
37609;SDS011;23457;51.966;8.230;2024-03-07T13:09:36;48.55;;;22.02;;
37609;SDS011;23457;51.966;8.230;2024-03-07T13:12:10;42.88;;;20.58;;
37609;SDS011;23457;51.966;8.230;2024-03-07T13:14:37;43.50;;;21.20;;
37609;SDS011;23457;51.966;8.230;2024-03-07T13:17:05;47.38;;;20.95;;
37609;SDS011;23457;51.966;8.230;2024-03-07T13:22:05;47.88;;;21.55;;
37609;SDS011;23457;51.966;8.230;2024-03-07T13:24:38;47.47;;;21.77;;
37609;SDS011;23457;51.966;8.230;2024-03-07T13:27:06;41.67;;;20.60;;
37609;SDS011;23457;51.966;8.230;2024-03-07T13:29:38;49.60;;;22.40;;
37609;SDS011;23457;51.966;8.230;2024-03-07T13:32:05;47.25;;;21.45;;
37609;SDS011;23457;51.966;8.230;2024-03-07T13:34:31;51.47;;;22.60;;
37609;SDS011;23457;51.966;8.230;2024-03-07T13:36:58;46.25;;;22.45;;
37609;SDS011;23457;51.966;8.230;2024-03-07T13:39:27;53.13;;;23.02;;
37609;SDS011;23457;51.966;8.230;2024-03-07T13:41:54;53.17;;;23.38;;
37609;SDS011;23457;51.966;8.230;2024-03-07T13:44:21;56.25;;;24.35;;
37609;SDS011;23457;51.966;8.230;2024-03-07T13:46:49;56.05;;;23.73;;
37609;SDS011;23457;51.966;8.230;2024-03-07T13:49:16;53.85;;;25.85;;
37609;SDS011;23457;51.966;8.230;2024-03-07T13:51:43;52.60;;;25.52;;
37609;SDS011;23457;51.966;8.230;2024-03-07T13:54:17;51.30;;;24.30;;
37609;SDS011;23457;51.966;8.230;2024-03-07T13:57:05;52.75;;;23.77;;
37609;SDS011;23457;51.966;8.230;2024-03-07T14:02:35;48.88;;;24.08;;
37609;SDS011;23457;51.966;8.230;2024-03-07T14:05:24;53.00;;;25.33;;
37609;SDS011;23457;51.966;8.230;2024-03-07T14:13:59;54.00;;;24.40;;
37609;SDS011;23457;51.966;8.230;2024-03-07T14:31:30;57.25;;;24.10;;
37609;SDS011;23457;51.966;8.230;2024-03-07T14:39:28;56.50;;;24.70;;
37609;SDS011;23457;51.966;8.230;2024-03-07T14:41:57;52.33;;;23.80;;
37609;SDS011;23457;51.966;8.230;2024-03-07T14:44:27;57.80;;;25.42;;
37609;SDS011;23457;51.966;8.230;2024-03-07T14:47:00;49.08;;;22.45;;
37609;SDS011;23457;51.966;8.230;2024-03-07T14:49:33;49.95;;;22.75;;
37609;SDS011;23457;51.966;8.230;2024-03-07T14:52:00;49.20;;;22.00;;
37609;SDS011;23457;51.966;8.230;2024-03-07T14:54:29;51.45;;;23.55;;
37609;SDS011;23457;51.966;8.230;2024-03-07T14:56:57;52.30;;;22.60;;
37609;SDS011;23457;51.966;8.230;2024-03-07T14:59:23;56.00;;;24.92;;
37609;SDS011;23457;51.966;8.230;2024-03-07T15:01:50;49.75;;;23.52;;
37609;SDS011;23457;51.966;8.230;2024-03-07T15:04:17;49.78;;;23.48;;
37609;SDS011;23457;51.966;8.230;2024-03-07T15:06:45;50.55;;;23.02;;
37609;SDS011;23457;51.966;8.230;2024-03-07T15:09:12;49.03;;;22.73;;
37609;SDS011;23457;51.966;8.230;2024-03-07T15:11:40;53.08;;;23.33;;
37609;SDS011;23457;51.966;8.230;2024-03-07T15:14:07;45.60;;;21.98;;
37609;SDS011;23457;51.966;8.230;2024-03-07T15:16:37;53.97;;;23.88;;
37609;SDS011;23457;51.966;8.230;2024-03-07T15:19:06;53.25;;;24.52;;
37609;SDS011;23457;51.966;8.230;2024-03-07T15:21:34;59.70;;;23.60;;
37609;SDS011;23457;51.966;8.230;2024-03-07T15:24:05;50.88;;;23.45;;
37609;SDS011;23457;51.966;8.230;2024-03-07T15:26:32;53.20;;;22.02;;
37609;SDS011;23457;51.966;8.230;2024-03-07T15:29:00;49.95;;;22.60;;
37609;SDS011;23457;51.966;8.230;2024-03-07T15:31:27;47.50;;;23.58;;
37609;SDS011;23457;51.966;8.230;2024-03-07T15:33:55;48.85;;;22.77;;
37609;SDS011;23457;51.966;8.230;2024-03-07T15:36:22;50.72;;;23.73;;
37609;SDS011;23457;51.966;8.230;2024-03-07T15:38:49;51.05;;;24.45;;
37609;SDS011;23457;51.966;8.230;2024-03-07T15:41:16;49.83;;;23.83;;